Time;durP1;ratioP1;P1;durP2;ratioP2;P2;SDS_P1;SDS_P2;PMS_P1;PMS_P2;Temp;Humidity;BMP_temperature;BMP_pressure;BME280_temperature;BME280_humidity;BME280_pressure;Samples;Min_cycle;Max_cycle;Signal;HPM_P1;HPM_P2
2023/02/25 00:01:19;;;;;;;24.77;7.32;;;;;;;;;;4892344;29;20402;-77
2023/02/25 00:03:45;;;;;;;15.55;5.70;;;;;;;;;;4893535;29;20033;-78
2023/02/25 00:06:13;;;;;;;20.83;6.10;;;;;;;;;;4886720;29;20029;-79
2023/02/25 00:08:42;;;;;;;20.55;7.28;;;;;;;;;;4894468;29;20028;-81
2023/02/25 00:11:08;;;;;;;13.20;5.80;;;;;;;;;;4882122;29;20448;-76
2023/02/25 00:13:34;;;;;;;25.90;6.72;;;;;;;;;;4903006;29;20075;-79
2023/02/25 00:16:03;;;;;;;19.60;5.05;;;;;;;;;;4890768;29;20029;-77
2023/02/25 00:18:29;;;;;;;14.30;6.45;;;;;;;;;;4898062;29;20037;-78
2023/02/25 00:20:56;;;;;;;21.02;7.43;;;;;;;;;;4884667;29;20037;-79
2023/02/25 00:23:22;;;;;;;26.60;7.72;;;;;;;;;;4896484;29;20088;-78
2023/02/25 00:25:48;;;;;;;28.95;10.18;;;;;;;;;;4897311;29;20024;-79
2023/02/25 00:28:15;;;;;;;31.08;12.45;;;;;;;;;;4898671;29;20033;-76
2023/02/25 00:30:41;;;;;;;40.53;16.25;;;;;;;;;;4902036;29;20040;-79
2023/02/25 00:33:09;;;;;;;31.42;13.65;;;;;;;;;;4900540;29;20024;-77
2023/02/25 00:35:39;;;;;;;28.35;12.38;;;;;;;;;;4889826;29;20048;-78
2023/02/25 00:38:06;;;;;;;33.38;14.10;;;;;;;;;;4895978;29;20036;-78
2023/02/25 00:40:32;;;;;;;26.70;10.90;;;;;;;;;;4899147;29;20035;-78
2023/02/25 00:42:58;;;;;;;21.70;9.02;;;;;;;;;;4894811;29;20024;-79
2023/02/25 00:45:24;;;;;;;21.30;8.05;;;;;;;;;;4903937;29;20410;-77
2023/02/25 00:47:50;;;;;;;16.83;6.70;;;;;;;;;;4906995;29;20472;-76
2023/02/25 00:50:17;;;;;;;18.85;5.80;;;;;;;;;;4898097;29;20033;-77
2023/02/25 00:52:45;;;;;;;15.73;7.22;;;;;;;;;;4897068;29;20032;-77
2023/02/25 00:55:11;;;;;;;22.23;7.30;;;;;;;;;;4903233;29;20017;-79
2023/02/25 00:57:38;;;;;;;18.13;6.53;;;;;;;;;;4890082;29;20029;-80
2023/02/25 01:00:10;;;;;;;22.83;5.70;;;;;;;;;;4879913;29;20395;-76
2023/02/25 01:02:36;;;;;;;21.73;5.90;;;;;;;;;;4914997;29;20071;-78
2023/02/25 01:05:02;;;;;;;19.00;6.70;;;;;;;;;;4889776;29;20040;-76
2023/02/25 01:07:29;;;;;;;16.45;4.78;;;;;;;;;;4894885;29;20037;-79
2023/02/25 01:09:55;;;;;;;18.02;5.28;;;;;;;;;;4898933;29;20032;-80
2023/02/25 01:12:21;;;;;;;18.48;6.05;;;;;;;;;;4896558;29;20028;-78
2023/02/25 01:14:48;;;;;;;13.85;5.72;;;;;;;;;;4893510;29;20095;-78
2023/02/25 01:17:14;;;;;;;18.90;6.03;;;;;;;;;;4897108;29;20025;-80
2023/02/25 01:19:40;;;;;;;23.50;7.05;;;;;;;;;;4891947;29;20025;-80
2023/02/25 01:22:06;;;;;;;21.30;6.43;;;;;;;;;;4884611;29;20029;-77
2023/02/25 01:24:33;;;;;;;18.13;7.10;;;;;;;;;;4907415;29;20099;-79
2023/02/25 01:27:00;;;;;;;12.63;5.65;;;;;;;;;;4904822;29;20021;-79
2023/02/25 01:29:31;;;;;;;13.85;6.55;;;;;;;;;;4899326;29;20072;-77
2023/02/25 01:31:59;;;;;;;14.40;5.97;;;;;;;;;;4893375;29;20504;-80
2023/02/25 01:34:25;;;;;;;13.68;5.90;;;;;;;;;;4896259;29;20041;-79
2023/02/25 01:36:52;;;;;;;18.95;7.32;;;;;;;;;;4888460;29;20043;-81
2023/02/25 01:39:19;;;;;;;13.07;7.15;;;;;;;;;;4899848;29;20043;-78
2023/02/25 01:41:47;;;;;;;18.05;6.55;;;;;;;;;;4886079;29;20058;-79
2023/02/25 01:44:13;;;;;;;15.93;6.13;;;;;;;;;;4892401;29;20044;-78
2023/02/25 01:46:43;;;;;;;14.65;5.95;;;;;;;;;;4893006;29;20037;-77
2023/02/25 01:49:18;;;;;;;22.13;8.27;;;;;;;;;;4897652;29;20096;-78
2023/02/25 01:51:45;;;;;;;16.75;5.68;;;;;;;;;;4901622;29;20032;-79
2023/02/25 01:54:12;;;;;;;14.63;6.18;;;;;;;;;;4899433;29;20104;-77
2023/02/25 01:56:40;;;;;;;15.60;5.82;;;;;;;;;;4903664;29;20111;-79
2023/02/25 01:59:06;;;;;;;19.60;5.85;;;;;;;;;;4912372;29;20040;-79
2023/02/25 02:01:34;;;;;;;20.33;6.22;;;;;;;;;;4893471;29;20047;-80
2023/02/25 02:04:03;;;;;;;26.42;11.57;;;;;;;;;;4901981;29;20098;-79
2023/02/25 02:06:33;;;;;;;20.08;7.05;;;;;;;;;;4899444;29;20036;-76
2023/02/25 02:08:59;;;;;;;16.95;6.45;;;;;;;;;;4887254;29;20029;-78
2023/02/25 02:11:25;;;;;;;19.48;5.85;;;;;;;;;;4898446;29;20051;-76
2023/02/25 02:13:54;;;;;;;13.05;6.65;;;;;;;;;;4896827;29;20044;-79
2023/02/25 02:16:34;;;;;;;24.98;5.72;;;;;;;;;;4888498;29;20055;-79
2023/02/25 02:19:19;;;;;;;13.20;5.30;;;;;;;;;;4888769;29;20060;-80
2023/02/25 02:21:50;;;;;;;15.27;6.13;;;;;;;;;;4872566;29;20136;-78
2023/02/25 02:24:39;;;;;;;18.63;5.30;;;;;;;;;;4896868;29;20028;-77
2023/02/25 02:27:35;;;;;;;16.55;5.25;;;;;;;;;;4887995;29;20065;-78
2023/02/25 02:30:22;;;;;;;17.40;4.93;;;;;;;;;;4887391;29;20060;-77
2023/02/25 02:32:56;;;;;;;10.43;5.28;;;;;;;;;;4891482;29;20029;-77
2023/02/25 02:35:27;;;;;;;14.55;5.25;;;;;;;;;;4887007;29;20061;-76
2023/02/25 02:37:53;;;;;;;18.00;5.43;;;;;;;;;;4896546;29;20059;-79
2023/02/25 02:40:25;;;;;;;14.98;6.70;;;;;;;;;;4892110;29;20044;-78
2023/02/25 02:43:00;;;;;;;20.00;5.85;;;;;;;;;;4890893;29;20033;-79
2023/02/25 02:45:26;;;;;;;;;;;;;;;;;;4887648;29;20084;-79
2023/02/25 02:47:54;;;;;;;13.20;5.28;;;;;;;;;;4891481;29;20365;-79
2023/02/25 02:50:29;;;;;;;15.23;5.45;;;;;;;;;;4893777;29;20032;-79
2023/02/25 02:52:57;;;;;;;18.15;6.43;;;;;;;;;;4892551;29;20025;-78
2023/02/25 02:55:25;;;;;;;14.48;5.95;;;;;;;;;;4890424;29;20064;-80
2023/02/25 02:57:53;;;;;;;17.58;6.00;;;;;;;;;;4899347;29;20025;-78
2023/02/25 03:00:23;;;;;;;17.35;5.25;;;;;;;;;;4892494;29;20037;-78
2023/02/25 03:02:51;;;;;;;11.45;5.65;;;;;;;;;;4886796;29;20034;-79
2023/02/25 03:05:18;;;;;;;14.07;5.93;;;;;;;;;;4887146;29;20370;-78
2023/02/25 03:07:52;;;;;;;13.75;6.00;;;;;;;;;;4902854;29;20021;-77
2023/02/25 03:10:19;;;;;;;13.82;5.95;;;;;;;;;;4893573;29;20029;-79
2023/02/25 03:12:45;;;;;;;15.02;5.80;;;;;;;;;;4895826;29;20308;-79
2023/02/25 03:15:13;;;;;;;15.13;5.15;;;;;;;;;;4891685;29;20181;-79
2023/02/25 03:17:41;;;;;;;10.00;4.70;;;;;;;;;;4895028;29;20384;-77
2023/02/25 03:20:13;;;;;;;13.13;4.95;;;;;;;;;;4887418;29;20045;-78
2023/02/25 03:22:44;;;;;;;14.63;5.10;;;;;;;;;;4882295;29;20029;-79
2023/02/25 03:25:26;;;;;;;14.65;5.07;;;;;;;;;;4890852;29;20039;-78
2023/02/25 03:27:53;;;;;;;8.60;4.13;;;;;;;;;;4904403;29;20119;-78
2023/02/25 03:30:37;;;;;;;12.30;4.55;;;;;;;;;;4887413;29;20201;-79
2023/02/25 03:33:29;;;;;;;10.88;5.38;;;;;;;;;;4884812;29;20071;-76
2023/02/25 03:35:56;;;;;;;16.17;5.00;;;;;;;;;;4877195;29;20048;-80
2023/02/25 03:38:24;;;;;;;13.65;5.20;;;;;;;;;;4886846;29;20037;-79
2023/02/25 03:40:51;;;;;;;11.90;4.50;;;;;;;;;;4889427;29;20056;-79
2023/02/25 03:43:22;;;;;;;16.27;4.93;;;;;;;;;;4880762;29;20095;-79
2023/02/25 03:45:48;;;;;;;15.07;4.85;;;;;;;;;;4888590;29;20071;-79
2023/02/25 03:48:16;;;;;;;15.13;4.90;;;;;;;;;;4892714;29;20492;-79
2023/02/25 03:50:54;;;;;;;19.58;5.03;;;;;;;;;;4890019;29;20105;-78
2023/02/25 03:53:20;;;;;;;13.35;5.72;;;;;;;;;;4886867;29;20057;-79
2023/02/25 03:55:46;;;;;;;13.10;5.22;;;;;;;;;;4887788;29;20033;-80
2023/02/25 03:58:12;;;;;;;18.45;5.70;;;;;;;;;;4890012;29;20395;-78
2023/02/25 04:00:40;;;;;;;17.75;5.50;;;;;;;;;;4890851;29;20476;-77
2023/02/25 04:03:06;;;;;;;13.13;6.00;;;;;;;;;;4890910;29;20040;-79
2023/02/25 04:05:34;;;;;;;19.90;6.32;;;;;;;;;;4891861;29;20091;-78
2023/02/25 04:08:00;;;;;;;9.05;4.57;;;;;;;;;;4878067;29;20033;-79
2023/02/25 04:10:27;;;;;;;9.18;5.55;;;;;;;;;;4878082;29;20514;-80
2023/02/25 04:12:53;;;;;;;13.50;4.63;;;;;;;;;;4891870;29;20025;-79
2023/02/25 04:15:20;;;;;;;13.43;4.88;;;;;;;;;;4896348;29;20432;-78
2023/02/25 04:17:46;;;;;;;13.32;5.55;;;;;;;;;;4888634;29;20032;-79
2023/02/25 04:20:13;;;;;;;13.60;5.93;;;;;;;;;;4889615;29;20043;-79
2023/02/25 04:22:39;;;;;;;13.57;5.88;;;;;;;;;;4889058;29;20028;-78
2023/02/25 04:25:06;;;;;;;13.95;5.35;;;;;;;;;;4896220;29;20071;-78
2023/02/25 04:27:32;;;;;;;21.60;5.57;;;;;;;;;;4893730;29;20035;-77
2023/02/25 04:29:59;;;;;;;9.50;4.72;;;;;;;;;;4875548;29;20032;-78
2023/02/25 04:32:25;;;;;;;18.15;4.45;;;;;;;;;;4898012;29;20028;-77
2023/02/25 04:34:51;;;;;;;15.60;5.57;;;;;;;;;;4881971;29;20329;-78
2023/02/25 04:37:17;;;;;;;15.68;4.68;;;;;;;;;;4892089;29;20505;-77
2023/02/25 04:39:43;;;;;;;13.98;5.07;;;;;;;;;;4888768;29;20092;-77
2023/02/25 04:42:09;;;;;;;18.67;5.22;;;;;;;;;;4891781;29;20355;-80
2023/02/25 04:44:36;;;;;;;11.05;4.78;;;;;;;;;;4888984;29;20047;-79
2023/02/25 04:47:02;;;;;;;16.42;4.88;;;;;;;;;;4888551;29;20084;-78
2023/02/25 04:49:28;;;;;;;8.55;4.75;;;;;;;;;;4883150;29;20033;-79
2023/02/25 04:51:54;;;;;;;12.90;4.22;;;;;;;;;;4886853;29;20037;-77
2023/02/25 04:54:20;;;;;;;12.27;5.68;;;;;;;;;;4893646;29;20028;-78
2023/02/25 04:56:47;;;;;;;10.20;4.97;;;;;;;;;;4889175;29;20112;-78
2023/02/25 04:59:13;;;;;;;10.40;4.45;;;;;;;;;;4896702;29;20036;-78
2023/02/25 05:01:40;;;;;;;14.25;4.57;;;;;;;;;;4893952;29;20409;-79
2023/02/25 05:04:06;;;;;;;12.18;5.30;;;;;;;;;;4884221;29;20040;-79
2023/02/25 05:06:33;;;;;;;11.00;4.63;;;;;;;;;;4886933;29;20304;-79
2023/02/25 05:08:59;;;;;;;10.68;4.70;;;;;;;;;;4896536;29;20055;-78
2023/02/25 05:11:26;;;;;;;14.63;5.38;;;;;;;;;;4887065;29;20092;-78
2023/02/25 05:13:55;;;;;;;14.10;4.60;;;;;;;;;;4890821;29;20056;-76
2023/02/25 05:16:22;;;;;;;14.93;5.10;;;;;;;;;;4886951;29;20032;-80
2023/02/25 05:18:48;;;;;;;16.38;4.55;;;;;;;;;;4872230;29;20033;-79
2023/02/25 05:21:21;;;;;;;12.75;4.65;;;;;;;;;;4898096;29;20029;-78
2023/02/25 05:23:48;;;;;;;9.93;4.65;;;;;;;;;;4898483;29;20020;-79
2023/02/25 05:26:15;;;;;;;11.82;5.28;;;;;;;;;;4897107;29;20040;-76
2023/02/25 05:28:42;;;;;;;12.93;4.72;;;;;;;;;;4893868;29;20037;-78
2023/02/25 05:31:10;;;;;;;14.38;4.88;;;;;;;;;;4900109;29;20017;-76
2023/02/25 05:33:37;;;;;;;10.43;5.18;;;;;;;;;;4889306;29;20028;-78
2023/02/25 05:36:11;;;;;;;8.80;4.78;;;;;;;;;;4893421;29;20025;-76
2023/02/25 05:38:37;;;;;;;10.63;4.57;;;;;;;;;;4892679;29;20037;-79
2023/02/25 05:41:07;;;;;;;12.23;4.80;;;;;;;;;;4893297;29;20111;-79
2023/02/25 05:43:34;;;;;;;11.70;4.80;;;;;;;;;;4879435;29;20067;-77
2023/02/25 05:46:01;;;;;;;11.68;5.35;;;;;;;;;;4893690;29;20055;-78
2023/02/25 05:48:28;;;;;;;6.53;4.47;;;;;;;;;;4896246;29;20035;-79
2023/02/25 05:51:00;;;;;;;13.35;4.93;;;;;;;;;;4889706;29;20218;-78
2023/02/25 05:53:26;;;;;;;12.32;4.57;;;;;;;;;;4886920;29;20020;-79
2023/02/25 05:55:52;;;;;;;10.02;5.55;;;;;;;;;;4890126;29;20040;-79
2023/02/25 05:58:18;;;;;;;12.32;5.32;;;;;;;;;;4888121;29;20029;-79
2023/02/25 06:00:44;;;;;;;11.68;4.72;;;;;;;;;;4895694;29;20399;-79
2023/02/25 06:03:10;;;;;;;10.45;5.15;;;;;;;;;;4902047;29;20040;-79
2023/02/25 06:05:40;;;;;;;8.90;4.60;;;;;;;;;;4903658;29;20071;-78
2023/02/25 06:08:06;;;;;;;7.25;4.15;;;;;;;;;;4896540;29;20624;-79
2023/02/25 06:10:37;;;;;;;12.18;4.63;;;;;;;;;;4886529;29;20064;-77
2023/02/25 06:13:06;;;;;;;8.48;4.05;;;;;;;;;;4892552;29;20075;-78
2023/02/25 06:15:32;;;;;;;15.30;4.70;;;;;;;;;;4904416;29;20020;-78
2023/02/25 06:17:59;;;;;;;11.32;4.75;;;;;;;;;;4899409;29;20024;-78
2023/02/25 06:20:26;;;;;;;9.77;4.82;;;;;;;;;;4893512;29;20032;-78
2023/02/25 06:22:53;;;;;;;6.75;5.20;;;;;;;;;;4897872;29;20441;-78
2023/02/25 06:25:19;;;;;;;9.73;5.07;;;;;;;;;;4898881;29;20029;-75
2023/02/25 06:27:46;;;;;;;12.00;4.43;;;;;;;;;;4900104;29;20110;-77
2023/02/25 06:30:12;;;;;;;9.45;4.60;;;;;;;;;;4871638;29;20084;-79
2023/02/25 06:32:38;;;;;;;13.95;4.95;;;;;;;;;;4879234;29;20097;-78
2023/02/25 06:35:06;;;;;;;11.43;4.35;;;;;;;;;;4901539;29;20469;-79
2023/02/25 06:37:33;;;;;;;10.15;4.70;;;;;;;;;;4895918;29;20016;-78
2023/02/25 06:39:59;;;;;;;8.77;4.38;;;;;;;;;;4889400;29;20024;-76
2023/02/25 06:42:25;;;;;;;9.20;3.90;;;;;;;;;;4900728;29;20025;-78
2023/02/25 06:44:51;;;;;;;8.85;3.95;;;;;;;;;;4895999;29;20044;-78
2023/02/25 06:47:17;;;;;;;8.57;3.78;;;;;;;;;;4896184;29;20444;-77
2023/02/25 06:49:44;;;;;;;9.07;5.07;;;;;;;;;;4895966;29;20032;-77
2023/02/25 06:52:10;;;;;;;8.88;3.58;;;;;;;;;;4896732;29;20035;-79
2023/02/25 06:54:36;;;;;;;11.05;4.40;;;;;;;;;;4887716;29;20109;-78
2023/02/25 06:57:02;;;;;;;8.30;4.30;;;;;;;;;;4888647;29;20571;-79
2023/02/25 06:59:28;;;;;;;11.95;5.20;;;;;;;;;;4888844;29;20071;-79
2023/02/25 07:01:54;;;;;;;10.10;4.05;;;;;;;;;;4896584;29;20043;-79
2023/02/25 07:04:20;;;;;;;10.35;4.63;;;;;;;;;;4896611;29;20025;-77
2023/02/25 07:06:47;;;;;;;5.55;3.70;;;;;;;;;;4897888;29;20051;-81
2023/02/25 07:09:13;;;;;;;8.82;3.78;;;;;;;;;;4896041;29;20110;-79
2023/02/25 07:11:39;;;;;;;7.45;3.33;;;;;;;;;;4897042;29;20040;-79
2023/02/25 07:14:06;;;;;;;9.60;3.75;;;;;;;;;;4892225;29;20025;-78
2023/02/25 07:16:33;;;;;;;5.85;4.22;;;;;;;;;;4880245;29;20025;-79
2023/02/25 07:19:03;;;;;;;11.98;4.72;;;;;;;;;;4890972;29;20017;-77
2023/02/25 07:21:29;;;;;;;10.25;4.45;;;;;;;;;;4892763;29;20040;-77
2023/02/25 07:23:56;;;;;;;10.18;3.95;;;;;;;;;;4895042;29;20459;-79
2023/02/25 07:26:27;;;;;;;9.05;3.97;;;;;;;;;;4891101;29;20488;-77
2023/02/25 07:28:53;;;;;;;7.25;3.72;;;;;;;;;;4893077;29;20037;-80
2023/02/25 07:31:20;;;;;;;9.77;3.80;;;;;;;;;;4897471;29;20024;-78
2023/02/25 07:33:47;;;;;;;9.05;3.92;;;;;;;;;;4889682;29;20084;-79
2023/02/25 07:36:14;;;;;;;5.90;3.15;;;;;;;;;;4875841;29;20029;-79
2023/02/25 07:38:40;;;;;;;12.82;3.63;;;;;;;;;;4879535;29;20033;-78
2023/02/25 07:41:07;;;;;;;5.97;3.13;;;;;;;;;;4893101;29;20063;-78
2023/02/25 07:43:33;;;;;;;4.22;2.97;;;;;;;;;;4894937;29;20062;-77
2023/02/25 07:46:00;;;;;;;5.50;3.25;;;;;;;;;;4894865;29;20051;-79
2023/02/25 07:48:26;;;;;;;6.93;3.47;;;;;;;;;;4886715;29;20482;-78
2023/02/25 07:50:52;;;;;;;8.18;3.40;;;;;;;;;;4875799;29;20024;-78
2023/02/25 07:53:21;;;;;;;6.65;3.50;;;;;;;;;;4889897;29;20087;-78
2023/02/25 07:55:47;;;;;;;6.55;3.13;;;;;;;;;;4887467;29;20096;-77
2023/02/25 07:58:14;;;;;;;8.10;3.30;;;;;;;;;;4889099;29;20400;-78
2023/02/25 08:00:40;;;;;;;6.07;3.55;;;;;;;;;;4893958;29;20111;-78
2023/02/25 08:03:07;;;;;;;9.13;3.78;;;;;;;;;;4889585;29;20056;-78
2023/02/25 08:05:34;;;;;;;8.85;3.28;;;;;;;;;;4889435;29;20296;-77
2023/02/25 08:08:00;;;;;;;5.78;3.40;;;;;;;;;;4873962;29;20187;-77
2023/02/25 08:10:27;;;;;;;8.40;3.50;;;;;;;;;;4892034;29;20531;-78
2023/02/25 08:12:53;;;;;;;4.03;2.65;;;;;;;;;;4889647;29;20036;-78
2023/02/25 08:15:19;;;;;;;5.60;3.17;;;;;;;;;;4892695;29;20143;-78
2023/02/25 08:17:48;;;;;;;7.00;3.33;;;;;;;;;;4890407;29;20079;-78
2023/02/25 08:20:14;;;;;;;4.93;3.03;;;;;;;;;;4892237;29;20080;-77
2023/02/25 08:22:40;;;;;;;6.20;3.15;;;;;;;;;;4898484;29;20356;-77
2023/02/25 08:25:06;;;;;;;3.55;2.75;;;;;;;;;;4883555;29;20056;-78
2023/02/25 08:27:34;;;;;;;3.80;2.47;;;;;;;;;;4887844;29;20031;-77
2023/02/25 08:30:01;;;;;;;4.32;2.20;;;;;;;;;;4891790;29;20037;-77
2023/02/25 08:32:27;;;;;;;5.03;2.92;;;;;;;;;;4887015;29;20036;-78
2023/02/25 08:34:53;;;;;;;4.93;2.55;;;;;;;;;;4890960;29;20438;-78
2023/02/25 08:37:21;;;;;;;5.82;2.72;;;;;;;;;;4891717;29;20025;-76
2023/02/25 08:39:47;;;;;;;5.40;2.63;;;;;;;;;;4889852;29;20021;-77
2023/02/25 08:42:17;;;;;;;3.28;2.97;;;;;;;;;;4875228;29;20033;-78
2023/02/25 08:44:43;;;;;;;5.13;2.80;;;;;;;;;;4890033;29;20324;-77
2023/02/25 08:47:10;;;;;;;4.72;2.20;;;;;;;;;;4871300;29;20048;-77
2023/02/25 08:49:36;;;;;;;3.95;2.35;;;;;;;;;;4893211;29;20064;-77
2023/02/25 08:52:02;;;;;;;4.43;2.15;;;;;;;;;;4889408;29;20025;-77
2023/02/25 08:54:28;;;;;;;3.58;2.47;;;;;;;;;;4892458;29;20029;-78
2023/02/25 08:56:56;;;;;;;5.75;2.50;;;;;;;;;;4889248;29;20028;-77
2023/02/25 08:59:22;;;;;;;2.92;2.47;;;;;;;;;;4888641;29;20440;-78
2023/02/25 09:01:49;;;;;;;5.07;2.53;;;;;;;;;;4888677;29;20032;-78
2023/02/25 09:04:20;;;;;;;6.07;3.10;;;;;;;;;;4891012;29;20088;-77
2023/02/25 09:06:46;;;;;;;7.43;2.80;;;;;;;;;;4891246;29;20032;-78
2023/02/25 09:09:13;;;;;;;6.07;2.17;;;;;;;;;;4894767;29;20515;-77
2023/02/25 09:11:40;;;;;;;5.72;2.20;;;;;;;;;;4895531;29;20029;-78
2023/02/25 09:14:06;;;;;;;3.25;2.15;;;;;;;;;;4891273;29;20496;-76
2023/02/25 09:16:32;;;;;;;4.40;2.08;;;;;;;;;;4894741;29;20472;-77
2023/02/25 09:18:59;;;;;;;5.97;2.55;;;;;;;;;;4888827;29;20035;-78
2023/02/25 09:21:25;;;;;;;2.95;2.10;;;;;;;;;;4894943;29;20029;-78
2023/02/25 09:23:51;;;;;;;2.05;1.52;;;;;;;;;;4878149;29;20118;-78
2023/02/25 09:26:18;;;;;;;3.05;1.58;;;;;;;;;;4888890;29;20096;-78
2023/02/25 09:28:46;;;;;;;1.92;1.50;;;;;;;;;;4904334;29;20043;-77
2023/02/25 09:31:12;;;;;;;2.47;1.85;;;;;;;;;;4878683;29;20484;-77
2023/02/25 09:33:41;;;;;;;4.68;2.03;;;;;;;;;;4888045;29;20536;-79
2023/02/25 09:36:17;;;;;;;6.55;2.00;;;;;;;;;;4894714;29;20029;-77
2023/02/25 09:38:44;;;;;;;3.47;1.80;;;;;;;;;;4890263;29;20036;-78
2023/02/25 09:41:19;;;;;;;4.88;1.85;;;;;;;;;;4895164;29;20035;-78
2023/02/25 09:43:46;;;;;;;4.97;1.60;;;;;;;;;;4885971;29;20033;-77
2023/02/25 09:46:16;;;;;;;3.00;1.90;;;;;;;;;;4899885;29;20487;-78
2023/02/25 09:48:57;;;;;;;1.63;1.52;;;;;;;;;;4886526;29;20028;-78
2023/02/25 09:51:25;;;;;;;2.60;2.03;;;;;;;;;;4889477;29;20516;-77
2023/02/25 09:53:53;;;;;;;2.17;1.65;;;;;;;;;;4889744;29;20028;-77
2023/02/25 09:56:21;;;;;;;2.90;2.60;;;;;;;;;;4892864;29;20051;-77
2023/02/25 09:58:50;;;;;;;1.90;1.60;;;;;;;;;;4864348;29;20041;-77
2023/02/25 10:01:44;;;;;;;2.78;1.85;;;;;;;;;;4893564;29;20119;-78
2023/02/25 10:04:29;;;;;;;2.38;1.65;;;;;;;;;;4875612;29;20037;-78
2023/02/25 10:06:56;;;;;;;3.03;1.90;;;;;;;;;;4878617;29;20441;-77
2023/02/25 10:09:29;;;;;;;2.25;1.60;;;;;;;;;;4894977;29;20052;-78
2023/02/25 10:12:08;;;;;;;3.05;1.70;;;;;;;;;;4888334;29;20032;-78
2023/02/25 10:14:37;;;;;;;1.63;1.52;;;;;;;;;;4890024;29;20029;-78
2023/02/25 10:17:22;;;;;;;2.55;1.60;;;;;;;;;;4886454;29;20040;-78
2023/02/25 10:19:48;;;;;;;3.42;1.80;;;;;;;;;;4891838;29;20044;-77
2023/02/25 10:22:33;;;;;;;2.53;1.60;;;;;;;;;;4886355;29;20507;-77
2023/02/25 10:25:10;;;;;;;2.75;1.65;;;;;;;;;;4879295;29;20894;-77
2023/02/25 10:27:38;;;;;;;5.93;1.80;;;;;;;;;;4882869;29;20033;-77
2023/02/25 10:30:23;;;;;;;5.30;2.40;;;;;;;;;;4890317;29;20029;-78
2023/02/25 10:32:49;;;;;;;3.83;2.47;;;;;;;;;;4886933;29;20028;-79
2023/02/25 10:35:19;;;;;;;8.35;3.00;;;;;;;;;;4885217;29;20598;-77
2023/02/25 10:37:45;;;;;;;4.45;2.97;;;;;;;;;;4884198;29;20511;-78
2023/02/25 10:40:15;;;;;;;3.42;3.03;;;;;;;;;;4890556;29;20470;-78
2023/02/25 10:42:43;;;;;;;4.93;3.08;;;;;;;;;;4892571;29;20071;-78
2023/02/25 10:45:10;;;;;;;4.77;2.10;;;;;;;;;;4859110;29;1296633;-78
2023/02/25 10:47:38;;;;;;;1.92;1.70;;;;;;;;;;4892470;29;20273;-78
2023/02/25 10:50:16;;;;;;;4.32;2.35;;;;;;;;;;4888125;29;20116;-78
2023/02/25 10:52:58;;;;;;;3.95;2.47;;;;;;;;;;4886674;29;20514;-78
2023/02/25 10:55:29;;;;;;;5.15;3.33;;;;;;;;;;4885293;29;20040;-78
2023/02/25 10:57:56;;;;;;;4.65;3.50;;;;;;;;;;4886097;29;20416;-80
2023/02/25 11:00:33;;;;;;;3.67;2.35;;;;;;;;;;4886564;29;20027;-77
2023/02/25 11:03:02;;;;;;;5.20;2.33;;;;;;;;;;4888043;29;20111;-78
2023/02/25 11:05:29;;;;;;;5.72;3.47;;;;;;;;;;4888226;29;20417;-78
2023/02/25 11:07:55;;;;;;;3.08;1.83;;;;;;;;;;4887207;29;20120;-78
2023/02/25 11:10:22;;;;;;;4.60;2.25;;;;;;;;;;4891646;29;20028;-79
2023/02/25 11:12:53;;;;;;;7.00;2.85;;;;;;;;;;4900001;29;20041;-77
2023/02/25 11:15:36;;;;;;;6.18;2.95;;;;;;;;;;4900825;29;20112;-79
2023/02/25 11:18:05;;;;;;;4.60;2.30;;;;;;;;;;4887459;29;20103;-79
2023/02/25 11:20:32;;;;;;;1.73;1.63;;;;;;;;;;4879599;29;20035;-78
2023/02/25 11:22:59;;;;;;;3.60;2.35;;;;;;;;;;4880709;29;20033;-78
2023/02/25 11:25:39;;;;;;;1.90;1.75;;;;;;;;;;4891372;29;20035;-79
2023/02/25 11:28:06;;;;;;;3.97;2.20;;;;;;;;;;4892649;29;20535;-78
2023/02/25 11:30:43;;;;;;;2.55;2.00;;;;;;;;;;4882482;29;20119;-77
2023/02/25 11:33:18;;;;;;;3.28;2.70;;;;;;;;;;4884816;29;20053;-80
2023/02/25 11:35:45;;;;;;;3.90;2.20;;;;;;;;;;4879593;29;20056;-78
2023/02/25 11:38:46;;;;;;;2.03;1.83;;;;;;;;;;4895915;29;20399;-78
2023/02/25 11:41:17;;;;;;;3.92;2.15;;;;;;;;;;4840416;29;20065;-78
2023/02/25 11:43:43;;;;;;;6.35;2.28;;;;;;;;;;4884093;29;20517;-79
2023/02/25 11:46:18;;;;;;;3.60;2.10;;;;;;;;;;4884710;29;20048;-80
2023/02/25 11:48:49;;;;;;;7.90;2.80;;;;;;;;;;4887020;29;20028;-79
2023/02/25 11:51:21;;;;;;;2.35;1.90;;;;;;;;;;4898839;29;20036;-77
2023/02/25 11:53:47;;;;;;;3.60;1.95;;;;;;;;;;4891921;29;20043;-79
2023/02/25 11:56:21;;;;;;;3.80;2.40;;;;;;;;;;4899065;29;20052;-78
2023/02/25 11:58:50;;;;;;;3.47;2.13;;;;;;;;;;4894636;29;20127;-77
2023/02/25 12:01:16;;;;;;;2.67;1.98;;;;;;;;;;4895559;29;20055;-79
2023/02/25 12:03:46;;;;;;;3.22;2.83;;;;;;;;;;4899596;29;20028;-78
2023/02/25 12:06:15;;;;;;;2.65;2.08;;;;;;;;;;4893473;29;20096;-79
2023/02/25 12:08:59;;;;;;;4.75;2.10;;;;;;;;;;4882453;29;20120;-78
2023/02/25 12:11:51;;;;;;;2.13;1.98;;;;;;;;;;4882986;29;20572;-77
2023/02/25 12:14:17;;;;;;;4.53;1.83;;;;;;;;;;4895376;29;20530;-79
2023/02/25 12:17:03;;;;;;;2.30;1.80;;;;;;;;;;4893666;29;20052;-78
2023/02/25 12:19:49;;;;;;;4.45;2.10;;;;;;;;;;4886221;29;20617;-78
2023/02/25 12:22:45;;;;;;;5.28;2.00;;;;;;;;;;4890787;29;20037;-79
2023/02/25 12:25:23;;;;;;;8.15;1.95;;;;;;;;;;4868364;29;20071;-79
2023/02/25 12:27:49;;;;;;;4.30;2.33;;;;;;;;;;4889949;29;20060;-79
2023/02/25 12:30:15;;;;;;;12.23;2.55;;;;;;;;;;4897163;29;20033;-78
2023/02/25 12:32:48;;;;;;;3.97;2.20;;;;;;;;;;4882742;29;20029;-78
2023/02/25 12:35:34;;;;;;;3.53;1.80;;;;;;;;;;4890054;29;20560;-77
2023/02/25 12:38:00;;;;;;;2.83;2.00;;;;;;;;;;4881149;29;20489;-78
2023/02/25 12:40:38;;;;;;;3.80;2.15;;;;;;;;;;4894208;29;20028;-78
2023/02/25 12:43:25;;;;;;;2.80;1.77;;;;;;;;;;4885279;29;20689;-79
2023/02/25 12:46:03;;;;;;;4.10;2.30;;;;;;;;;;4891415;29;20530;-79
2023/02/25 12:48:39;;;;;;;6.97;2.50;;;;;;;;;;4892224;29;20534;-78
2023/02/25 12:51:24;;;;;;;3.70;2.08;;;;;;;;;;4894741;29;20032;-80
2023/02/25 12:54:08;;;;;;;8.27;2.90;;;;;;;;;;4905490;29;20028;-77
2023/02/25 12:56:56;;;;;;;4.10;2.45;;;;;;;;;;4907602;29;20020;-78
2023/02/25 12:59:27;;;;;;;4.35;2.10;;;;;;;;;;4873489;29;20033;-77
2023/02/25 13:02:03;;;;;;;3.25;2.25;;;;;;;;;;4890755;29;20024;-77
2023/02/25 13:04:53;;;;;;;5.28;1.85;;;;;;;;;;4901622;29;20028;-78
2023/02/25 13:07:31;;;;;;;3.28;2.08;;;;;;;;;;4892625;29;20037;-78
2023/02/25 13:10:16;;;;;;;4.00;2.17;;;;;;;;;;4886721;29;20051;-77
2023/02/25 13:13:01;;;;;;;4.35;2.45;;;;;;;;;;4884518;29;20024;-78
2023/02/25 13:15:30;;;;;;;6.40;2.38;;;;;;;;;;4890653;29;20033;-77
2023/02/25 13:17:59;;;;;;;6.82;2.92;;;;;;;;;;4892814;29;20025;-78
2023/02/25 13:20:50;;;;;;;4.18;2.58;;;;;;;;;;4893912;29;20368;-79
2023/02/25 13:23:16;;;;;;;2.30;2.10;;;;;;;;;;4886990;29;20031;-78
2023/02/25 13:25:52;;;;;;;5.45;2.30;;;;;;;;;;4891559;29;20060;-78
2023/02/25 13:28:37;;;;;;;3.75;2.30;;;;;;;;;;4898902;29;20395;-78
2023/02/25 13:31:15;;;;;;;3.33;1.87;;;;;;;;;;4904032;29;20036;-78
2023/02/25 13:34:02;;;;;;;5.40;2.75;;;;;;;;;;4885681;29;20032;-79
2023/02/25 13:36:47;;;;;;;5.07;2.90;;;;;;;;;;4889891;29;20096;-78
2023/02/25 13:39:16;;;;;;;5.57;2.40;;;;;;;;;;4910765;29;20028;-78
2023/02/25 13:41:49;;;;;;;7.38;2.65;;;;;;;;;;4882403;29;20039;-77
2023/02/25 13:44:15;;;;;;;4.43;2.40;;;;;;;;;;4880918;29;20056;-78
2023/02/25 13:46:47;;;;;;;4.30;2.65;;;;;;;;;;4891935;29;20092;-78
2023/02/25 13:49:32;;;;;;;4.18;2.13;;;;;;;;;;4888641;29;20025;-78
2023/02/25 13:51:59;;;;;;;8.48;2.78;;;;;;;;;;4881736;29;20032;-78
2023/02/25 13:54:41;;;;;;;5.68;2.58;;;;;;;;;;4898783;29;20551;-79
2023/02/25 13:57:13;;;;;;;5.40;2.53;;;;;;;;;;4884568;29;20036;-79
2023/02/25 13:59:39;;;;;;;13.68;7.25;;;;;;;;;;4897405;29;20040;-78
2023/02/25 14:02:35;;;;;;;12.25;7.03;;;;;;;;;;4896466;29;20068;-79
2023/02/25 14:05:24;;;;;;;6.97;3.35;;;;;;;;;;4890073;29;20045;-78
2023/02/25 14:08:03;;;;;;;6.05;2.20;;;;;;;;;;4889721;29;20040;-78
2023/02/25 14:10:35;;;;;;;6.70;3.80;;;;;;;;;;4893632;29;20072;-78
2023/02/25 14:13:11;;;;;;;5.38;2.40;;;;;;;;;;4884458;29;20028;-78
2023/02/25 14:15:55;;;;;;;4.95;2.88;;;;;;;;;;4892929;29;20025;-78
2023/02/25 14:18:22;;;;;;;7.67;2.83;;;;;;;;;;4902749;29;20432;-78
2023/02/25 14:21:00;;;;;;;5.32;2.15;;;;;;;;;;4891378;29;20337;-77
2023/02/25 14:23:44;;;;;;;9.95;2.50;;;;;;;;;;4880918;29;20395;-79
2023/02/25 14:26:13;;;;;;;3.63;2.10;;;;;;;;;;4886796;29;20038;-78
2023/02/25 14:28:40;;;;;;;4.07;2.78;;;;;;;;;;4882996;29;20021;-77
2023/02/25 14:31:11;;;;;;;4.68;2.00;;;;;;;;;;4893982;29;20047;-79
2023/02/25 14:33:38;;;;;;;7.68;2.88;;;;;;;;;;4895273;29;20029;-78
2023/02/25 14:36:12;;;;;;;4.10;2.15;;;;;;;;;;4888430;29;20229;-78
2023/02/25 14:38:47;;;;;;;4.70;2.33;;;;;;;;;;4890555;29;20040;-77
2023/02/25 14:41:29;;;;;;;7.97;4.78;;;;;;;;;;4885405;29;20044;-77
2023/02/25 14:43:57;;;;;;;4.22;2.85;;;;;;;;;;4888951;29;20096;-76
2023/02/25 14:46:32;;;;;;;7.25;4.30;;;;;;;;;;4889555;29;20068;-76
2023/02/25 14:49:02;;;;;;;5.72;2.63;;;;;;;;;;4890062;29;20036;-78
2023/02/25 14:51:48;;;;;;;4.70;2.58;;;;;;;;;;4872930;29;20024;-75
2023/02/25 14:54:20;;;;;;;2.83;2.40;;;;;;;;;;4891604;29;20052;-78
2023/02/25 14:56:51;;;;;;;6.18;3.45;;;;;;;;;;4888811;29;20040;-78